Dunellen, New Jersey
Current Conditions -  °F | °C
As of 2:53 PM on Friday 24 Oct 2014 (Local Time) from KSMQ Reporting Station
Clear Clear  
Wind Chill: 69°   Ceiling: Unl
Heat Index: 69°   Visibility: 10mi
Dew Point: 42°   Wind: 13mph
Humidity: 38%   Direction: 320°NW
Pressure: 29.76"   Gusts: 24mph
Location:  40.59°N, 74.46°W
Report Text: KSMQ 241853Z AUTO 32011G21KT 10SM CLR 21/06 A2976 RMK AO2 SLP076 T02060056
Loading
Personal Weather Stations






























Interactive Weather Map
Tropical Storm Tracking
New forecast layout! Learn more

10-Day Weather Forecast

Advertisements
Track Severe Weather on mobile